sensor_id;sensor_type;location;lat;lon;timestamp;P1;durP1;ratioP1;P2;durP2;ratioP2
54555;SDS011;57291;37.520;15.106;2023-04-24T00:02:03;10.77;;;6.25;;
54555;SDS011;57291;37.520;15.106;2023-04-24T00:04:30;12.00;;;5.50;;
54555;SDS011;57291;37.520;15.106;2023-04-24T00:06:58;12.88;;;5.95;;
54555;SDS011;57291;37.520;15.106;2023-04-24T00:09:26;12.13;;;5.50;;
54555;SDS011;57291;37.520;15.106;2023-04-24T00:11:53;13.73;;;5.78;;
54555;SDS011;57291;37.520;15.106;2023-04-24T00:14:21;9.35;;;5.03;;
54555;SDS011;57291;37.520;15.106;2023-04-24T00:16:48;12.40;;;5.80;;
54555;SDS011;57291;37.520;15.106;2023-04-24T00:19:16;9.88;;;5.28;;
54555;SDS011;57291;37.520;15.106;2023-04-24T00:21:43;11.48;;;5.68;;
54555;SDS011;57291;37.520;15.106;2023-04-24T00:24:10;11.20;;;5.43;;
54555;SDS011;57291;37.520;15.106;2023-04-24T00:26:37;11.27;;;5.57;;
54555;SDS011;57291;37.520;15.106;2023-04-24T00:29:04;14.02;;;6.03;;
54555;SDS011;57291;37.520;15.106;2023-04-24T00:31:32;12.20;;;5.55;;
54555;SDS011;57291;37.520;15.106;2023-04-24T00:34:01;12.85;;;5.40;;
54555;SDS011;57291;37.520;15.106;2023-04-24T00:36:30;12.88;;;5.22;;
54555;SDS011;57291;37.520;15.106;2023-04-24T00:38:57;13.02;;;5.78;;
54555;SDS011;57291;37.520;15.106;2023-04-24T00:41:24;12.10;;;6.03;;
54555;SDS011;57291;37.520;15.106;2023-04-24T00:43:52;14.88;;;6.22;;
54555;SDS011;57291;37.520;15.106;2023-04-24T00:46:20;11.45;;;5.28;;
54555;SDS011;57291;37.520;15.106;2023-04-24T00:48:48;8.60;;;5.57;;
54555;SDS011;57291;37.520;15.106;2023-04-24T00:51:16;10.18;;;5.35;;
54555;SDS011;57291;37.520;15.106;2023-04-24T00:53:44;7.57;;;4.97;;
54555;SDS011;57291;37.520;15.106;2023-04-24T00:56:11;9.20;;;5.38;;
54555;SDS011;57291;37.520;15.106;2023-04-24T00:58:38;12.57;;;5.93;;
54555;SDS011;57291;37.520;15.106;2023-04-24T01:01:08;10.20;;;5.28;;
54555;SDS011;57291;37.520;15.106;2023-04-24T01:03:38;9.07;;;4.90;;
54555;SDS011;57291;37.520;15.106;2023-04-24T01:06:07;11.88;;;5.20;;
54555;SDS011;57291;37.520;15.106;2023-04-24T01:08:36;12.07;;;5.03;;
54555;SDS011;57291;37.520;15.106;2023-04-24T01:11:04;12.40;;;5.45;;
54555;SDS011;57291;37.520;15.106;2023-04-24T01:13:32;11.43;;;4.90;;
54555;SDS011;57291;37.520;15.106;2023-04-24T01:16:00;13.65;;;4.93;;
54555;SDS011;57291;37.520;15.106;2023-04-24T01:18:27;9.43;;;4.40;;
54555;SDS011;57291;37.520;15.106;2023-04-24T01:20:58;11.95;;;4.50;;
54555;SDS011;57291;37.520;15.106;2023-04-24T01:23:30;11.85;;;4.88;;
54555;SDS011;57291;37.520;15.106;2023-04-24T01:25:57;7.15;;;3.92;;
54555;SDS011;57291;37.520;15.106;2023-04-24T01:28:24;12.10;;;4.45;;
54555;SDS011;57291;37.520;15.106;2023-04-24T01:30:52;10.98;;;4.97;;
54555;SDS011;57291;37.520;15.106;2023-04-24T01:33:22;14.05;;;4.78;;
54555;SDS011;57291;37.520;15.106;2023-04-24T01:35:49;8.98;;;4.45;;
54555;SDS011;57291;37.520;15.106;2023-04-24T01:38:17;12.10;;;4.88;;
54555;SDS011;57291;37.520;15.106;2023-04-24T01:40:44;10.60;;;4.78;;
54555;SDS011;57291;37.520;15.106;2023-04-24T01:43:11;7.10;;;4.75;;
54555;SDS011;57291;37.520;15.106;2023-04-24T01:45:39;11.57;;;5.57;;
54555;SDS011;57291;37.520;15.106;2023-04-24T01:48:06;7.75;;;4.95;;
54555;SDS011;57291;37.520;15.106;2023-04-24T01:50:33;10.23;;;5.00;;
54555;SDS011;57291;37.520;15.106;2023-04-24T01:53:02;9.25;;;5.38;;
54555;SDS011;57291;37.520;15.106;2023-04-24T01:55:29;8.70;;;4.65;;
54555;SDS011;57291;37.520;15.106;2023-04-24T01:57:57;9.38;;;5.18;;
54555;SDS011;57291;37.520;15.106;2023-04-24T02:00:26;8.27;;;4.53;;
54555;SDS011;57291;37.520;15.106;2023-04-24T02:02:53;8.55;;;4.30;;
54555;SDS011;57291;37.520;15.106;2023-04-24T02:05:21;6.85;;;4.20;;
54555;SDS011;57291;37.520;15.106;2023-04-24T02:07:48;8.13;;;4.43;;
54555;SDS011;57291;37.520;15.106;2023-04-24T02:10:15;7.70;;;4.65;;
54555;SDS011;57291;37.520;15.106;2023-04-24T02:12:42;8.57;;;4.75;;
54555;SDS011;57291;37.520;15.106;2023-04-24T02:15:10;9.10;;;4.47;;
54555;SDS011;57291;37.520;15.106;2023-04-24T02:17:37;10.30;;;4.90;;
54555;SDS011;57291;37.520;15.106;2023-04-24T02:20:05;12.45;;;4.45;;
54555;SDS011;57291;37.520;15.106;2023-04-24T02:22:33;9.13;;;4.78;;
54555;SDS011;57291;37.520;15.106;2023-04-24T02:25:01;10.30;;;5.53;;
54555;SDS011;57291;37.520;15.106;2023-04-24T02:27:28;8.40;;;4.90;;
54555;SDS011;57291;37.520;15.106;2023-04-24T02:29:56;10.02;;;5.00;;
54555;SDS011;57291;37.520;15.106;2023-04-24T02:32:23;9.45;;;4.57;;
54555;SDS011;57291;37.520;15.106;2023-04-24T02:34:50;10.32;;;4.88;;
54555;SDS011;57291;37.520;15.106;2023-04-24T02:37:17;6.78;;;4.32;;
54555;SDS011;57291;37.520;15.106;2023-04-24T02:39:44;9.27;;;4.28;;
54555;SDS011;57291;37.520;15.106;2023-04-24T02:42:11;7.93;;;4.45;;
54555;SDS011;57291;37.520;15.106;2023-04-24T02:44:39;9.20;;;4.60;;
54555;SDS011;57291;37.520;15.106;2023-04-24T02:47:06;6.60;;;4.03;;
54555;SDS011;57291;37.520;15.106;2023-04-24T02:49:35;11.45;;;4.55;;
54555;SDS011;57291;37.520;15.106;2023-04-24T02:52:02;8.20;;;4.40;;
54555;SDS011;57291;37.520;15.106;2023-04-24T02:54:29;10.45;;;5.18;;
54555;SDS011;57291;37.520;15.106;2023-04-24T02:56:56;9.73;;;4.65;;
54555;SDS011;57291;37.520;15.106;2023-04-24T02:59:24;10.02;;;4.35;;
54555;SDS011;57291;37.520;15.106;2023-04-24T03:01:53;7.72;;;4.60;;
54555;SDS011;57291;37.520;15.106;2023-04-24T03:04:21;8.40;;;4.30;;
54555;SDS011;57291;37.520;15.106;2023-04-24T03:06:49;12.27;;;4.75;;
54555;SDS011;57291;37.520;15.106;2023-04-24T03:09:19;10.10;;;4.55;;
54555;SDS011;57291;37.520;15.106;2023-04-24T03:11:47;12.27;;;4.85;;
54555;SDS011;57291;37.520;15.106;2023-04-24T03:14:16;9.52;;;5.03;;
54555;SDS011;57291;37.520;15.106;2023-04-24T03:16:43;7.13;;;5.00;;
54555;SDS011;57291;37.520;15.106;2023-04-24T03:19:10;10.32;;;5.20;;
54555;SDS011;57291;37.520;15.106;2023-04-24T03:21:47;12.43;;;6.78;;
54555;SDS011;57291;37.520;15.106;2023-04-24T03:24:14;11.32;;;5.78;;
54555;SDS011;57291;37.520;15.106;2023-04-24T03:26:42;15.07;;;8.05;;
54555;SDS011;57291;37.520;15.106;2023-04-24T03:29:28;19.85;;;8.82;;
54555;SDS011;57291;37.520;15.106;2023-04-24T03:31:56;13.50;;;6.75;;
54555;SDS011;57291;37.520;15.106;2023-04-24T03:34:24;12.35;;;6.07;;
54555;SDS011;57291;37.520;15.106;2023-04-24T03:36:52;14.05;;;5.78;;
54555;SDS011;57291;37.520;15.106;2023-04-24T03:39:20;10.63;;;4.97;;
54555;SDS011;57291;37.520;15.106;2023-04-24T03:41:52;10.77;;;5.20;;
54555;SDS011;57291;37.520;15.106;2023-04-24T03:44:25;12.10;;;5.93;;
54555;SDS011;57291;37.520;15.106;2023-04-24T03:46:52;11.95;;;5.35;;
54555;SDS011;57291;37.520;15.106;2023-04-24T03:49:21;9.20;;;5.25;;
54555;SDS011;57291;37.520;15.106;2023-04-24T03:51:49;7.78;;;5.80;;
54555;SDS011;57291;37.520;15.106;2023-04-24T03:54:21;10.52;;;5.75;;
54555;SDS011;57291;37.520;15.106;2023-04-24T03:56:50;13.23;;;7.03;;
54555;SDS011;57291;37.520;15.106;2023-04-24T03:59:17;10.05;;;5.53;;
54555;SDS011;57291;37.520;15.106;2023-04-24T04:01:50;10.07;;;5.05;;
54555;SDS011;57291;37.520;15.106;2023-04-24T04:04:17;9.40;;;5.40;;
54555;SDS011;57291;37.520;15.106;2023-04-24T04:06:45;9.10;;;4.80;;
54555;SDS011;57291;37.520;15.106;2023-04-24T04:09:13;9.73;;;4.88;;
54555;SDS011;57291;37.520;15.106;2023-04-24T04:11:40;8.55;;;4.70;;
54555;SDS011;57291;37.520;15.106;2023-04-24T04:14:07;8.50;;;5.00;;
54555;SDS011;57291;37.520;15.106;2023-04-24T04:16:38;9.45;;;4.43;;
54555;SDS011;57291;37.520;15.106;2023-04-24T04:19:07;9.00;;;4.30;;
54555;SDS011;57291;37.520;15.106;2023-04-24T04:21:34;10.75;;;4.35;;
54555;SDS011;57291;37.520;15.106;2023-04-24T04:24:19;6.97;;;3.40;;
54555;SDS011;57291;37.520;15.106;2023-04-24T04:26:51;14.50;;;4.28;;
54555;SDS011;57291;37.520;15.106;2023-04-24T04:29:26;8.43;;;3.60;;
54555;SDS011;57291;37.520;15.106;2023-04-24T04:31:53;9.82;;;3.22;;
54555;SDS011;57291;37.520;15.106;2023-04-24T04:34:22;11.60;;;3.35;;
54555;SDS011;57291;37.520;15.106;2023-04-24T04:36:50;8.93;;;3.55;;
54555;SDS011;57291;37.520;15.106;2023-04-24T04:39:32;11.60;;;3.55;;
54555;SDS011;57291;37.520;15.106;2023-04-24T04:42:10;8.00;;;2.95;;
54555;SDS011;57291;37.520;15.106;2023-04-24T04:44:42;9.63;;;3.17;;
54555;SDS011;57291;37.520;15.106;2023-04-24T04:47:18;6.32;;;2.83;;
54555;SDS011;57291;37.520;15.106;2023-04-24T04:49:52;5.90;;;2.60;;
54555;SDS011;57291;37.520;15.106;2023-04-24T04:52:23;7.68;;;2.17;;
54555;SDS011;57291;37.520;15.106;2023-04-24T04:55:02;8.43;;;2.47;;
54555;SDS011;57291;37.520;15.106;2023-04-24T04:57:50;7.18;;;2.40;;
54555;SDS011;57291;37.520;15.106;2023-04-24T05:00:17;4.35;;;2.20;;
54555;SDS011;57291;37.520;15.106;2023-04-24T05:02:50;7.50;;;2.50;;
54555;SDS011;57291;37.520;15.106;2023-04-24T05:05:18;7.80;;;2.58;;
54555;SDS011;57291;37.520;15.106;2023-04-24T05:07:45;8.63;;;2.58;;
54555;SDS011;57291;37.520;15.106;2023-04-24T05:10:13;7.18;;;3.10;;
54555;SDS011;57291;37.520;15.106;2023-04-24T05:12:40;7.78;;;3.33;;
54555;SDS011;57291;37.520;15.106;2023-04-24T05:15:11;9.10;;;3.33;;
54555;SDS011;57291;37.520;15.106;2023-04-24T05:17:38;10.93;;;3.28;;
54555;SDS011;57291;37.520;15.106;2023-04-24T05:20:07;7.18;;;3.22;;
54555;SDS011;57291;37.520;15.106;2023-04-24T05:22:37;14.00;;;3.72;;
54555;SDS011;57291;37.520;15.106;2023-04-24T05:25:04;10.05;;;3.40;;
54555;SDS011;57291;37.520;15.106;2023-04-24T05:27:47;9.80;;;3.80;;
54555;SDS011;57291;37.520;15.106;2023-04-24T05:30:16;10.45;;;3.45;;
54555;SDS011;57291;37.520;15.106;2023-04-24T05:32:43;8.65;;;3.45;;
54555;SDS011;57291;37.520;15.106;2023-04-24T05:35:12;7.55;;;3.28;;
54555;SDS011;57291;37.520;15.106;2023-04-24T05:37:39;11.18;;;4.22;;
54555;SDS011;57291;37.520;15.106;2023-04-24T05:40:08;12.57;;;3.58;;
54555;SDS011;57291;37.520;15.106;2023-04-24T05:42:35;9.65;;;4.07;;
54555;SDS011;57291;37.520;15.106;2023-04-24T05:45:02;14.13;;;3.97;;
54555;SDS011;57291;37.520;15.106;2023-04-24T05:47:30;8.40;;;3.90;;
54555;SDS011;57291;37.520;15.106;2023-04-24T05:49:58;13.35;;;4.38;;
54555;SDS011;57291;37.520;15.106;2023-04-24T05:52:25;10.85;;;3.80;;
54555;SDS011;57291;37.520;15.106;2023-04-24T05:54:53;11.13;;;3.92;;
54555;SDS011;57291;37.520;15.106;2023-04-24T05:57:23;9.88;;;3.58;;
54555;SDS011;57291;37.520;15.106;2023-04-24T05:59:54;6.05;;;2.80;;
54555;SDS011;57291;37.520;15.106;2023-04-24T06:02:21;7.45;;;2.88;;
54555;SDS011;57291;37.520;15.106;2023-04-24T06:04:49;6.68;;;2.60;;
54555;SDS011;57291;37.520;15.106;2023-04-24T06:07:17;9.77;;;2.75;;
54555;SDS011;57291;37.520;15.106;2023-04-24T06:09:44;8.55;;;2.47;;
54555;SDS011;57291;37.520;15.106;2023-04-24T06:12:12;9.73;;;2.40;;
54555;SDS011;57291;37.520;15.106;2023-04-24T06:14:55;8.02;;;2.40;;
54555;SDS011;57291;37.520;15.106;2023-04-24T06:17:38;7.95;;;2.42;;
54555;SDS011;57291;37.520;15.106;2023-04-24T06:20:05;10.23;;;2.50;;
54555;SDS011;57291;37.520;15.106;2023-04-24T06:22:34;9.05;;;2.40;;
54555;SDS011;57291;37.520;15.106;2023-04-24T06:25:02;10.23;;;2.47;;
54555;SDS011;57291;37.520;15.106;2023-04-24T06:27:29;8.23;;;2.10;;
54555;SDS011;57291;37.520;15.106;2023-04-24T06:29:56;8.68;;;2.40;;
54555;SDS011;57291;37.520;15.106;2023-04-24T06:32:23;9.13;;;3.30;;
54555;SDS011;57291;37.520;15.106;2023-04-24T06:34:51;5.47;;;2.10;;
54555;SDS011;57291;37.520;15.106;2023-04-24T06:37:22;7.45;;;1.73;;
54555;SDS011;57291;37.520;15.106;2023-04-24T06:39:49;6.38;;;2.33;;
54555;SDS011;57291;37.520;15.106;2023-04-24T06:42:16;4.68;;;1.98;;
54555;SDS011;57291;37.520;15.106;2023-04-24T06:44:43;8.45;;;2.30;;
54555;SDS011;57291;37.520;15.106;2023-04-24T06:47:11;8.45;;;2.50;;
54555;SDS011;57291;37.520;15.106;2023-04-24T06:49:41;9.32;;;2.30;;
54555;SDS011;57291;37.520;15.106;2023-04-24T06:52:09;9.75;;;2.50;;
54555;SDS011;57291;37.520;15.106;2023-04-24T06:54:36;8.23;;;2.20;;
54555;SDS011;57291;37.520;15.106;2023-04-24T06:57:03;8.82;;;2.00;;
54555;SDS011;57291;37.520;15.106;2023-04-24T06:59:30;7.93;;;2.33;;
54555;SDS011;57291;37.520;15.106;2023-04-24T07:01:57;9.57;;;2.40;;
54555;SDS011;57291;37.520;15.106;2023-04-24T07:04:24;7.85;;;2.50;;
54555;SDS011;57291;37.520;15.106;2023-04-24T07:06:52;9.13;;;2.10;;
54555;SDS011;57291;37.520;15.106;2023-04-24T07:09:22;8.52;;;2.63;;
54555;SDS011;57291;37.520;15.106;2023-04-24T07:11:52;7.47;;;2.65;;
54555;SDS011;57291;37.520;15.106;2023-04-24T07:14:20;7.88;;;2.10;;
54555;SDS011;57291;37.520;15.106;2023-04-24T07:16:47;8.50;;;2.28;;
54555;SDS011;57291;37.520;15.106;2023-04-24T07:19:14;5.00;;;2.42;;
54555;SDS011;57291;37.520;15.106;2023-04-24T07:21:44;8.85;;;2.97;;
54555;SDS011;57291;37.520;15.106;2023-04-24T07:24:12;9.18;;;3.00;;
54555;SDS011;57291;37.520;15.106;2023-04-24T07:26:39;9.38;;;2.90;;
54555;SDS011;57291;37.520;15.106;2023-04-24T07:29:07;6.80;;;2.92;;
54555;SDS011;57291;37.520;15.106;2023-04-24T07:31:34;12.38;;;2.85;;
54555;SDS011;57291;37.520;15.106;2023-04-24T07:34:01;6.15;;;2.80;;
54555;SDS011;57291;37.520;15.106;2023-04-24T07:36:28;10.48;;;2.20;;
54555;SDS011;57291;37.520;15.106;2023-04-24T07:38:56;11.38;;;2.05;;
54555;SDS011;57291;37.520;15.106;2023-04-24T07:41:23;6.28;;;1.67;;
54555;SDS011;57291;37.520;15.106;2023-04-24T07:43:51;6.28;;;1.70;;
54555;SDS011;57291;37.520;15.106;2023-04-24T07:46:20;4.03;;;1.40;;
54555;SDS011;57291;37.520;15.106;2023-04-24T07:48:47;5.82;;;1.70;;
54555;SDS011;57291;37.520;15.106;2023-04-24T07:51:27;7.05;;;1.73;;
54555;SDS011;57291;37.520;15.106;2023-04-24T07:53:54;5.20;;;1.90;;
54555;SDS011;57291;37.520;15.106;2023-04-24T07:56:21;4.30;;;1.83;;
54555;SDS011;57291;37.520;15.106;2023-04-24T07:58:49;5.20;;;1.75;;
54555;SDS011;57291;37.520;15.106;2023-04-24T08:01:16;5.75;;;1.50;;
54555;SDS011;57291;37.520;15.106;2023-04-24T08:03:43;5.88;;;1.77;;
54555;SDS011;57291;37.520;15.106;2023-04-24T08:06:11;8.45;;;1.60;;
54555;SDS011;57291;37.520;15.106;2023-04-24T08:08:38;5.97;;;1.90;;
54555;SDS011;57291;37.520;15.106;2023-04-24T08:11:05;5.35;;;1.77;;
54555;SDS011;57291;37.520;15.106;2023-04-24T08:13:32;5.00;;;1.65;;
54555;SDS011;57291;37.520;15.106;2023-04-24T08:15:59;6.53;;;1.85;;
54555;SDS011;57291;37.520;15.106;2023-04-24T08:18:27;6.53;;;1.50;;
54555;SDS011;57291;37.520;15.106;2023-04-24T08:20:54;4.85;;;1.60;;
54555;SDS011;57291;37.520;15.106;2023-04-24T08:23:21;5.82;;;1.55;;
54555;SDS011;57291;37.520;15.106;2023-04-24T08:25:48;6.28;;;1.52;;
54555;SDS011;57291;37.520;15.106;2023-04-24T08:28:15;9.95;;;1.80;;
54555;SDS011;57291;37.520;15.106;2023-04-24T08:30:46;5.13;;;1.23;;
54555;SDS011;57291;37.520;15.106;2023-04-24T08:33:14;5.25;;;1.40;;
54555;SDS011;57291;37.520;15.106;2023-04-24T08:35:41;3.38;;;1.50;;
54555;SDS011;57291;37.520;15.106;2023-04-24T08:38:08;5.75;;;1.38;;
54555;SDS011;57291;37.520;15.106;2023-04-24T08:40:36;5.75;;;1.80;;
54555;SDS011;57291;37.520;15.106;2023-04-24T08:43:03;6.53;;;1.85;;
54555;SDS011;57291;37.520;15.106;2023-04-24T08:45:31;5.30;;;1.60;;
54555;SDS011;57291;37.520;15.106;2023-04-24T08:47:59;8.73;;;1.50;;
54555;SDS011;57291;37.520;15.106;2023-04-24T08:50:27;2.90;;;1.27;;
54555;SDS011;57291;37.520;15.106;2023-04-24T08:52:56;5.30;;;1.40;;
54555;SDS011;57291;37.520;15.106;2023-04-24T08:55:24;7.35;;;1.67;;
54555;SDS011;57291;37.520;15.106;2023-04-24T08:57:52;5.45;;;1.50;;
54555;SDS011;57291;37.520;15.106;2023-04-24T09:00:20;3.78;;;1.20;;
54555;SDS011;57291;37.520;15.106;2023-04-24T09:02:51;7.63;;;1.58;;
54555;SDS011;57291;37.520;15.106;2023-04-24T09:05:21;3.97;;;1.48;;
54555;SDS011;57291;37.520;15.106;2023-04-24T09:07:54;8.23;;;1.30;;
54555;SDS011;57291;37.520;15.106;2023-04-24T09:10:23;5.15;;;1.33;;
54555;SDS011;57291;37.520;15.106;2023-04-24T09:12:51;3.97;;;1.60;;
54555;SDS011;57291;37.520;15.106;2023-04-24T09:15:19;4.47;;;1.40;;
54555;SDS011;57291;37.520;15.106;2023-04-24T09:17:47;10.43;;;1.63;;
54555;SDS011;57291;37.520;15.106;2023-04-24T09:20:14;5.07;;;1.60;;
54555;SDS011;57291;37.520;15.106;2023-04-24T09:22:42;4.68;;;1.45;;
54555;SDS011;57291;37.520;15.106;2023-04-24T09:25:10;6.95;;;1.85;;
54555;SDS011;57291;37.520;15.106;2023-04-24T09:27:42;6.35;;;1.55;;
54555;SDS011;57291;37.520;15.106;2023-04-24T09:30:11;3.92;;;1.63;;
54555;SDS011;57291;37.520;15.106;2023-04-24T09:32:39;4.65;;;1.45;;
54555;SDS011;57291;37.520;15.106;2023-04-24T09:35:14;4.95;;;1.55;;
54555;SDS011;57291;37.520;15.106;2023-04-24T09:37:43;5.40;;;1.50;;
54555;SDS011;57291;37.520;15.106;2023-04-24T09:40:16;3.85;;;1.30;;
54555;SDS011;57291;37.520;15.106;2023-04-24T09:42:54;4.13;;;1.50;;
54555;SDS011;57291;37.520;15.106;2023-04-24T09:48:08;4.75;;;1.70;;
54555;SDS011;57291;37.520;15.106;2023-04-24T09:50:37;4.47;;;1.40;;
54555;SDS011;57291;37.520;15.106;2023-04-24T09:53:04;8.30;;;1.70;;
54555;SDS011;57291;37.520;15.106;2023-04-24T09:55:38;6.38;;;1.60;;
54555;SDS011;57291;37.520;15.106;2023-04-24T09:58:07;7.30;;;1.63;;
54555;SDS011;57291;37.520;15.106;2023-04-24T10:00:34;3.90;;;1.70;;
54555;SDS011;57291;37.520;15.106;2023-04-24T10:03:02;5.45;;;1.80;;
54555;SDS011;57291;37.520;15.106;2023-04-24T10:05:32;5.28;;;1.50;;
54555;SDS011;57291;37.520;15.106;2023-04-24T10:08:06;5.38;;;1.52;;
54555;SDS011;57291;37.520;15.106;2023-04-24T10:10:42;5.07;;;1.45;;
54555;SDS011;57291;37.520;15.106;2023-04-24T10:13:13;3.58;;;1.75;;
54555;SDS011;57291;37.520;15.106;2023-04-24T10:15:42;3.35;;;1.60;;
54555;SDS011;57291;37.520;15.106;2023-04-24T10:18:09;4.40;;;2.38;;
54555;SDS011;57291;37.520;15.106;2023-04-24T10:20:38;3.92;;;1.60;;
54555;SDS011;57291;37.520;15.106;2023-04-24T10:23:06;10.52;;;1.85;;
54555;SDS011;57291;37.520;15.106;2023-04-24T10:25:35;3.58;;;1.60;;
54555;SDS011;57291;37.520;15.106;2023-04-24T10:28:03;5.88;;;1.48;;
54555;SDS011;57291;37.520;15.106;2023-04-24T10:30:33;5.47;;;2.03;;
54555;SDS011;57291;37.520;15.106;2023-04-24T10:33:05;6.22;;;1.88;;
54555;SDS011;57291;37.520;15.106;2023-04-24T10:35:39;5.47;;;1.73;;
54555;SDS011;57291;37.520;15.106;2023-04-24T10:38:12;6.45;;;2.35;;
54555;SDS011;57291;37.520;15.106;2023-04-24T10:40:41;4.33;;;1.50;;
54555;SDS011;57291;37.520;15.106;2023-04-24T10:43:09;4.30;;;1.70;;
54555;SDS011;57291;37.520;15.106;2023-04-24T10:45:38;4.45;;;1.60;;
54555;SDS011;57291;37.520;15.106;2023-04-24T10:48:07;3.13;;;1.80;;
54555;SDS011;57291;37.520;15.106;2023-04-24T10:50:47;7.53;;;1.88;;
54555;SDS011;57291;37.520;15.106;2023-04-24T10:53:28;9.23;;;1.90;;
54555;SDS011;57291;37.520;15.106;2023-04-24T10:58:37;4.90;;;1.73;;
54555;SDS011;57291;37.520;15.106;2023-04-24T11:01:07;8.85;;;1.80;;
54555;SDS011;57291;37.520;15.106;2023-04-24T11:03:34;5.63;;;1.63;;
54555;SDS011;57291;37.520;15.106;2023-04-24T11:06:07;7.25;;;2.25;;
54555;SDS011;57291;37.520;15.106;2023-04-24T11:08:39;5.78;;;2.20;;
54555;SDS011;57291;37.520;15.106;2023-04-24T11:16:28;4.67;;;2.07;;
54555;SDS011;57291;37.520;15.106;2023-04-24T11:19:04;7.28;;;2.40;;
54555;SDS011;57291;37.520;15.106;2023-04-24T11:21:42;5.43;;;2.03;;
54555;SDS011;57291;37.520;15.106;2023-04-24T11:24:26;5.70;;;2.28;;
54555;SDS011;57291;37.520;15.106;2023-04-24T11:34:50;5.95;;;2.17;;
54555;SDS011;57291;37.520;15.106;2023-04-24T11:37:20;6.35;;;2.00;;
54555;SDS011;57291;37.520;15.106;2023-04-24T11:39:57;6.43;;;1.92;;
54555;SDS011;57291;37.520;15.106;2023-04-24T11:42:26;6.40;;;2.03;;
54555;SDS011;57291;37.520;15.106;2023-04-24T11:44:55;10.20;;;2.30;;
54555;SDS011;57291;37.520;15.106;2023-04-24T11:47:29;5.50;;;1.95;;
54555;SDS011;57291;37.520;15.106;2023-04-24T11:49:57;10.40;;;2.78;;
54555;SDS011;57291;37.520;15.106;2023-04-24T11:52:26;9.07;;;2.80;;
54555;SDS011;57291;37.520;15.106;2023-04-24T11:54:54;4.88;;;1.90;;
54555;SDS011;57291;37.520;15.106;2023-04-24T11:57:22;7.07;;;2.67;;
54555;SDS011;57291;37.520;15.106;2023-04-24T11:59:53;8.23;;;2.20;;
54555;SDS011;57291;37.520;15.106;2023-04-24T12:02:23;7.57;;;2.30;;
54555;SDS011;57291;37.520;15.106;2023-04-24T12:04:52;6.90;;;2.33;;
54555;SDS011;57291;37.520;15.106;2023-04-24T12:07:21;5.40;;;2.20;;
54555;SDS011;57291;37.520;15.106;2023-04-24T12:12:18;7.65;;;2.50;;
54555;SDS011;57291;37.520;15.106;2023-04-24T12:14:47;13.05;;;2.60;;
54555;SDS011;57291;37.520;15.106;2023-04-24T12:17:16;4.57;;;2.13;;
54555;SDS011;57291;37.520;15.106;2023-04-24T12:19:47;9.10;;;2.60;;
54555;SDS011;57291;37.520;15.106;2023-04-24T12:22:15;6.75;;;2.17;;
54555;SDS011;57291;37.520;15.106;2023-04-24T12:25:01;6.68;;;2.70;;
54555;SDS011;57291;37.520;15.106;2023-04-24T12:27:30;6.95;;;2.50;;
54555;SDS011;57291;37.520;15.106;2023-04-24T12:29:59;6.90;;;2.25;;
54555;SDS011;57291;37.520;15.106;2023-04-24T12:32:29;4.07;;;2.10;;
54555;SDS011;57291;37.520;15.106;2023-04-24T12:34:57;5.07;;;2.10;;
54555;SDS011;57291;37.520;15.106;2023-04-24T12:37:25;5.35;;;2.20;;
54555;SDS011;57291;37.520;15.106;2023-04-24T12:39:59;5.47;;;2.40;;
54555;SDS011;57291;37.520;15.106;2023-04-24T12:42:27;8.32;;;2.30;;
54555;SDS011;57291;37.520;15.106;2023-04-24T12:45:00;7.47;;;2.88;;
54555;SDS011;57291;37.520;15.106;2023-04-24T12:47:30;4.53;;;2.17;;
54555;SDS011;57291;37.520;15.106;2023-04-24T12:49:58;6.22;;;2.20;;
54555;SDS011;57291;37.520;15.106;2023-04-24T12:52:26;5.63;;;2.22;;
54555;SDS011;57291;37.520;15.106;2023-04-24T12:54:56;13.65;;;2.33;;
54555;SDS011;57291;37.520;15.106;2023-04-24T12:57:25;6.97;;;2.85;;
54555;SDS011;57291;37.520;15.106;2023-04-24T12:59:54;11.85;;;2.95;;
54555;SDS011;57291;37.520;15.106;2023-04-24T13:02:23;11.52;;;2.65;;
54555;SDS011;57291;37.520;15.106;2023-04-24T13:04:51;9.07;;;2.60;;
54555;SDS011;57291;37.520;15.106;2023-04-24T13:07:19;8.88;;;2.70;;
54555;SDS011;57291;37.520;15.106;2023-04-24T13:09:47;7.95;;;2.60;;
54555;SDS011;57291;37.520;15.106;2023-04-24T13:12:15;9.90;;;3.00;;
54555;SDS011;57291;37.520;15.106;2023-04-24T13:14:42;6.00;;;2.17;;
54555;SDS011;57291;37.520;15.106;2023-04-24T13:17:09;6.32;;;2.08;;
54555;SDS011;57291;37.520;15.106;2023-04-24T13:19:39;7.30;;;2.30;;
54555;SDS011;57291;37.520;15.106;2023-04-24T13:22:08;8.73;;;2.53;;
54555;SDS011;57291;37.520;15.106;2023-04-24T13:24:37;7.97;;;2.33;;
54555;SDS011;57291;37.520;15.106;2023-04-24T13:27:07;7.82;;;2.30;;
54555;SDS011;57291;37.520;15.106;2023-04-24T13:29:36;7.70;;;2.80;;
54555;SDS011;57291;37.520;15.106;2023-04-24T13:32:03;6.47;;;2.78;;
54555;SDS011;57291;37.520;15.106;2023-04-24T13:34:31;6.93;;;2.58;;
54555;SDS011;57291;37.520;15.106;2023-04-24T13:36:58;9.02;;;2.55;;
54555;SDS011;57291;37.520;15.106;2023-04-24T13:39:25;6.22;;;2.45;;
54555;SDS011;57291;37.520;15.106;2023-04-24T13:41:53;5.30;;;2.10;;
54555;SDS011;57291;37.520;15.106;2023-04-24T13:44:21;5.85;;;2.25;;
54555;SDS011;57291;37.520;15.106;2023-04-24T13:46:50;8.48;;;2.25;;
54555;SDS011;57291;37.520;15.106;2023-04-24T13:49:20;7.15;;;2.42;;
54555;SDS011;57291;37.520;15.106;2023-04-24T13:51:48;6.75;;;2.63;;
54555;SDS011;57291;37.520;15.106;2023-04-24T13:54:15;8.48;;;2.38;;
54555;SDS011;57291;37.520;15.106;2023-04-24T13:56:42;8.35;;;2.72;;
54555;SDS011;57291;37.520;15.106;2023-04-24T13:59:11;6.28;;;2.70;;
54555;SDS011;57291;37.520;15.106;2023-04-24T14:01:39;7.63;;;2.60;;
54555;SDS011;57291;37.520;15.106;2023-04-24T14:04:06;5.70;;;2.45;;
54555;SDS011;57291;37.520;15.106;2023-04-24T14:06:33;6.00;;;2.33;;
54555;SDS011;57291;37.520;15.106;2023-04-24T14:09:00;6.40;;;2.85;;
54555;SDS011;57291;37.520;15.106;2023-04-24T14:11:27;7.50;;;2.67;;
54555;SDS011;57291;37.520;15.106;2023-04-24T14:13:55;8.00;;;2.90;;
54555;SDS011;57291;37.520;15.106;2023-04-24T14:16:25;13.65;;;3.17;;
54555;SDS011;57291;37.520;15.106;2023-04-24T14:18:52;11.57;;;3.20;;
54555;SDS011;57291;37.520;15.106;2023-04-24T14:21:21;6.47;;;2.88;;
54555;SDS011;57291;37.520;15.106;2023-04-24T14:23:48;7.93;;;2.70;;
54555;SDS011;57291;37.520;15.106;2023-04-24T14:26:15;5.63;;;2.63;;
54555;SDS011;57291;37.520;15.106;2023-04-24T14:28:42;7.15;;;2.80;;
54555;SDS011;57291;37.520;15.106;2023-04-24T14:31:10;10.13;;;3.42;;
54555;SDS011;57291;37.520;15.106;2023-04-24T14:33:37;4.72;;;2.80;;
54555;SDS011;57291;37.520;15.106;2023-04-24T14:36:05;11.32;;;2.63;;
54555;SDS011;57291;37.520;15.106;2023-04-24T14:38:32;5.63;;;2.72;;
54555;SDS011;57291;37.520;15.106;2023-04-24T14:40:59;12.32;;;3.25;;
54555;SDS011;57291;37.520;15.106;2023-04-24T14:43:30;5.82;;;2.42;;
54555;SDS011;57291;37.520;15.106;2023-04-24T14:45:59;5.60;;;2.83;;
54555;SDS011;57291;37.520;15.106;2023-04-24T14:48:26;6.68;;;2.50;;
54555;SDS011;57291;37.520;15.106;2023-04-24T14:50:53;7.22;;;2.78;;
54555;SDS011;57291;37.520;15.106;2023-04-24T14:53:21;7.47;;;2.35;;
54555;SDS011;57291;37.520;15.106;2023-04-24T14:55:48;5.30;;;1.92;;
54555;SDS011;57291;37.520;15.106;2023-04-24T14:58:15;7.13;;;2.58;;
54555;SDS011;57291;37.520;15.106;2023-04-24T15:00:42;7.95;;;2.42;;
54555;SDS011;57291;37.520;15.106;2023-04-24T15:03:09;6.55;;;2.28;;